Time;durP1;ratioP1;P1;durP2;ratioP2;P2;SDS_P1;SDS_P2;PMS_P1;PMS_P2;Temp;Humidity;BMP_temperature;BMP_pressure;BME280_temperature;BME280_humidity;BME280_pressure;Samples;Min_cycle;Max_cycle;Signal;HPM_P1;HPM_P2
2022/09/04 00:00:49;;;;;;;;;;;16.60;90.40;;;;;;5015602;28;19925;-77
2022/09/04 00:03:39;;;;;;;;;;;16.60;90.40;;;;;;5015162;28;19977;-76
2022/09/04 00:06:08;;;;;;;;;;;16.50;90.40;;;;;;5014136;28;19925;-77
2022/09/04 00:08:48;;;;;;;;;;;16.50;90.50;;;;;;5014998;28;20020;-77
2022/09/04 00:11:17;;;;;;;;;;;16.50;90.30;;;;;;5048655;28;20343;-77
2022/09/04 00:13:45;;;;;;;;;;;16.40;90.30;;;;;;5047401;28;19933;-76
2022/09/04 00:16:21;;;;;;;;;;;16.40;90.50;;;;;;5031062;28;19926;-78
2022/09/04 00:18:56;;;;;;;;;;;16.40;90.50;;;;;;5031506;28;19926;-77
2022/09/04 00:21:42;;;;;;;;;;;16.30;90.60;;;;;;5030996;28;19926;-77
2022/09/04 00:24:16;;;;;;;;;;;16.30;90.60;;;;;;5047798;28;19980;-77
2022/09/04 00:26:42;;;;;;;;;;;16.30;90.70;;;;;;5014443;28;19956;-77
2022/09/04 00:29:19;;;;;;;;;;;16.30;90.60;;;;;;4998021;28;20039;-77
2022/09/04 00:31:49;;;;;;;;;;;16.30;90.70;;;;;;5014548;28;19988;-77
2022/09/04 00:34:33;;;;;;;;;;;16.30;90.70;;;;;;5031037;28;19925;-77
2022/09/04 00:37:03;;;;;;;;;;;16.30;90.70;;;;;;4997819;28;20024;-77
2022/09/04 00:39:34;;;;;;;;;;;16.30;90.70;;;;;;5030876;28;20389;-76
2022/09/04 00:42:18;;;;;;;;;;;16.20;90.70;;;;;;5047656;28;19926;-77
2022/09/04 00:44:49;;;;;;;;;;;16.20;90.80;;;;;;5013172;28;19954;-77
2022/09/04 00:47:39;;;;;;;;;;;16.20;90.70;;;;;;4998586;28;20315;-77
2022/09/04 00:50:05;;;;;;;;;;;16.20;90.80;;;;;;5014387;28;19979;-77
2022/09/04 00:52:40;;;;;;;;;;;16.20;90.80;;;;;;5046840;28;19980;-77
2022/09/04 00:55:14;;;;;;;;;;;16.20;91.00;;;;;;4997819;28;19925;-77
2022/09/04 00:57:58;;;;;;;;;;;16.10;90.90;;;;;;5013681;28;20019;-77
2022/09/04 01:00:26;;;;;;;;;;;16.10;91.00;;;;;;5013842;28;19968;-77
2022/09/04 01:03:17;;;;;;;;;;;16.10;91.20;;;;;;5013868;28;20016;-77
2022/09/04 01:05:46;;;;;;;;;;;16.10;91.20;;;;;;5013531;28;20373;-77
2022/09/04 01:08:22;;;;;;;;;;;16.00;91.20;;;;;;4997371;28;19929;-77
2022/09/04 01:10:53;;;;;;;;;;;16.00;91.10;;;;;;5030433;28;19933;-77
2022/09/04 01:13:38;;;;;;;;;;;16.00;91.30;;;;;;5030033;28;20270;-77
2022/09/04 01:16:14;;;;;;;;;;;16.00;91.20;;;;;;5013174;28;20300;-77
2022/09/04 01:18:52;;;;;;;;;;;16.00;91.50;;;;;;5030376;28;20251;-77
2022/09/04 01:21:18;;;;;;;;;;;16.00;91.60;;;;;;5014290;28;19925;-77
2022/09/04 01:23:52;;;;;;;;;;;15.90;91.50;;;;;;5013707;28;20003;-77
2022/09/04 01:26:35;;;;;;;;;;;15.90;91.70;;;;;;5030654;28;19926;-77
2022/09/04 01:29:16;;;;;;;;;;;15.90;91.80;;;;;;5013744;28;19983;-77
2022/09/04 01:32:04;;;;;;;;;;;15.80;91.90;;;;;;5013255;28;19932;-77
2022/09/04 01:34:39;;;;;;;;;;;15.80;92.10;;;;;;5013631;28;19925;-76
2022/09/04 01:37:15;;;;;;;;;;;15.80;92.10;;;;;;4997177;28;19968;-77
2022/09/04 01:39:44;;;;;;;;;;;15.70;92.40;;;;;;5013324;28;19933;-76
2022/09/04 01:42:28;;;;;;;;;;;15.70;92.50;;;;;;5030412;28;19925;-77
2022/09/04 01:44:53;;;;;;;;;;;15.70;92.60;;;;;;4996756;28;19933;-78
2022/09/04 01:47:24;;;;;;;;;;;15.60;92.60;;;;;;4996792;28;19925;-77
2022/09/04 01:50:13;;;;;;;;;;;15.60;92.50;;;;;;5029952;28;19949;-77
2022/09/04 01:52:44;;;;;;;;;;;15.60;92.70;;;;;;5009698;28;19932;-76
2022/09/04 01:55:13;;;;;;;;;;;15.60;92.80;;;;;;5013845;28;19948;-78
2022/09/04 01:57:48;;;;;;;;;;;15.60;92.90;;;;;;5019141;28;19926;-77
2022/09/04 02:00:18;;;;;;;;;;;15.50;93.00;;;;;;5036775;28;19988;-77
2022/09/04 02:02:53;;;;;;;;;;;15.50;92.90;;;;;;5036914;28;19936;-77
2022/09/04 02:05:28;;;;;;;;;;;15.50;92.80;;;;;;5019107;28;19926;-77
2022/09/04 02:07:56;;;;;;;;;;;15.50;93.00;;;;;;5019732;28;19972;-77
2022/09/04 02:10:41;;;;;;;;;;;15.50;92.70;;;;;;5019411;28;19925;-77
2022/09/04 02:13:13;;;;;;;;;;;15.50;92.90;;;;;;5019214;28;19925;-76
2022/09/04 02:15:45;;;;;;;;;;;15.40;93.00;;;;;;5020307;28;20238;-77
2022/09/04 02:18:11;;;;;;;;;;;15.40;93.00;;;;;;5003795;28;19925;-76
2022/09/04 02:20:39;;;;;;;;;;;15.40;93.00;;;;;;5035864;28;19975;-77
2022/09/04 02:23:19;;;;;;;;;;;15.40;93.30;;;;;;5019049;28;20381;-77
2022/09/04 02:26:03;;;;;;;;;;;15.40;93.50;;;;;;5036107;28;20336;-77
2022/09/04 02:28:41;;;;;;;;;;;15.40;93.50;;;;;;5003151;28;19926;-77
2022/09/04 02:31:33;;;;;;;;;;;15.40;93.40;;;;;;5053309;28;19972;-77
2022/09/04 02:34:04;;;;;;;;;;;15.30;93.60;;;;;;5002463;28;19936;-76
2022/09/04 02:36:33;;;;;;;;;;;15.30;94.10;;;;;;5019294;28;20012;-76
2022/09/04 02:39:02;;;;;;;;;;;15.30;94.00;;;;;;5020097;28;19948;-76
2022/09/04 02:41:40;;;;;;;;;;;15.20;93.90;;;;;;5003145;28;19925;-76
2022/09/04 02:44:14;;;;;;;;;;;15.20;94.00;;;;;;5036513;28;19976;-77
2022/09/04 02:47:13;;;;;;;;;;;15.20;94.10;;;;;;5002874;28;20260;-77
2022/09/04 02:49:50;;;;;;;;;;;15.10;94.10;;;;;;5001860;28;20003;-77
2022/09/04 02:52:34;;;;;;;;;;;15.10;94.20;;;;;;5002801;28;19926;-78
2022/09/04 02:55:16;;;;;;;;;;;15.10;94.40;;;;;;5018807;28;19975;-77
2022/09/04 02:58:01;;;;;;;;;;;15.00;94.60;;;;;;5035149;28;20337;-76
2022/09/04 03:00:38;;;;;;;;;;;15.00;94.60;;;;;;5019854;28;19925;-76
2022/09/04 03:03:09;;;;;;;;;;;15.00;94.80;;;;;;5002948;28;19932;-77
2022/09/04 03:06:00;;;;;;;;;;;14.90;94.90;;;;;;5018527;28;19925;-77
2022/09/04 03:08:32;;;;;;;;;;;14.90;95.00;;;;;;5013057;28;19925;-77
2022/09/04 03:11:07;;;;;;;;;;;14.90;95.20;;;;;;5032343;28;19932;-77
2022/09/04 03:13:45;;;;;;;;;;;14.80;95.50;;;;;;5048862;28;19932;-76
2022/09/04 03:16:17;;;;;;;;;;;14.80;95.70;;;;;;5016641;28;20028;-77
2022/09/04 03:19:17;;;;;;;;;;;14.80;96.00;;;;;;5032604;28;19932;-76
2022/09/04 03:21:51;;;;;;;;;;;14.80;96.00;;;;;;4998710;28;19969;-76
2022/09/04 03:24:36;;;;;;;;;;;14.70;96.20;;;;;;5015875;28;20258;-76
2022/09/04 03:27:04;;;;;;;;;;;14.70;96.30;;;;;;4999972;28;19930;-76
2022/09/04 03:29:52;;;;;;;;;;;14.70;96.40;;;;;;5015235;28;19933;-77
2022/09/04 03:32:20;;;;;;;;;;;14.70;96.60;;;;;;5049210;28;19926;-77
2022/09/04 03:35:01;;;;;;;;;;;14.70;96.80;;;;;;5015585;28;19926;-76
2022/09/04 03:37:36;;;;;;;;;;;14.70;96.90;;;;;;5015698;28;19932;-77
2022/09/04 03:40:02;;;;;;;;;;;14.70;97.00;;;;;;5015670;28;19926;-76
2022/09/04 03:42:33;;;;;;;;;;;14.70;97.20;;;;;;4999191;28;19932;-77
2022/09/04 03:44:59;;;;;;;;;;;14.70;97.40;;;;;;5048669;28;19926;-77
2022/09/04 03:47:57;;;;;;;;;;;14.70;97.60;;;;;;4998849;28;19933;-77
2022/09/04 03:50:22;;;;;;;;;;;14.60;97.90;;;;;;5031406;28;19925;-77
2022/09/04 03:52:54;;;;;;;;;;;14.60;97.90;;;;;;4998255;28;19933;-77
2022/09/04 03:55:26;;;;;;;;;;;14.60;98.10;;;;;;5015024;28;19925;-76
2022/09/04 03:58:00;;;;;;;;;;;14.60;98.30;;;;;;5048838;28;19933;-76
2022/09/04 04:00:33;;;;;;;;;;;14.60;98.40;;;;;;4998888;28;19925;-76
2022/09/04 04:03:02;;;;;;;;;;;14.60;98.60;;;;;;5014909;28;20386;-76
2022/09/04 04:05:44;;;;;;;;;;;14.60;98.60;;;;;;5031121;28;19932;-77
2022/09/04 04:08:22;;;;;;;;;;;14.60;98.40;;;;;;5031642;28;19944;-76
2022/09/04 04:11:04;;;;;;;;;;;14.60;98.80;;;;;;5015569;28;20016;-77
2022/09/04 04:13:46;;;;;;;;;;;14.50;98.90;;;;;;5047498;28;19926;-77
2022/09/04 04:16:17;;;;;;;;;;;14.50;99.00;;;;;;5015490;28;20254;-76
2022/09/04 04:18:43;;;;;;;;;;;14.50;99.20;;;;;;4998078;28;20347;-76
2022/09/04 04:21:20;;;;;;;;;;;14.50;99.40;;;;;;5014818;28;19932;-77
2022/09/04 04:23:58;;;;;;;;;;;14.50;99.40;;;;;;5014821;28;19925;-77
2022/09/04 04:26:53;;;;;;;;;;;14.60;99.30;;;;;;5015356;28;19925;-76
2022/09/04 04:29:51;;;;;;;;;;;14.60;99.50;;;;;;4997575;28;19925;-77
2022/09/04 04:32:16;;;;;;;;;;;14.60;99.60;;;;;;4997539;28;19926;-76
2022/09/04 04:35:02;;;;;;;;;;;14.60;99.50;;;;;;5014322;28;20270;-77
2022/09/04 04:37:42;;;;;;;;;;;14.70;99.50;;;;;;4998190;28;19932;-77
2022/09/04 04:40:31;;;;;;;;;;;14.70;99.70;;;;;;5030463;28;19933;-76
2022/09/04 04:43:08;;;;;;;;;;;14.70;99.80;;;;;;5030599;28;20348;-77
2022/09/04 04:45:49;;;;;;;;;;;14.70;99.90;;;;;;5014139;28;19984;-77
2022/09/04 04:48:25;;;;;;;;;;;14.70;99.90;;;;;;5031382;28;19977;-76
2022/09/04 04:51:09;;;;;;;;;;;14.70;99.90;;;;;;5030790;28;19925;-76
2022/09/04 04:53:41;;;;;;;;;;;14.70;99.90;;;;;;5013615;28;19933;-77
2022/09/04 04:56:18;;;;;;;;;;;14.70;99.90;;;;;;4997657;28;20088;-76
2022/09/04 04:59:02;;;;;;;;;;;14.70;99.90;;;;;;5030057;28;19972;-77
2022/09/04 05:01:34;;;;;;;;;;;14.70;99.90;;;;;;4997609;28;19932;-77
2022/09/04 05:04:10;;;;;;;;;;;14.70;99.90;;;;;;4997449;28;19976;-76
2022/09/04 05:06:42;;;;;;;;;;;14.70;99.90;;;;;;4997254;28;20342;-77
2022/09/04 05:09:10;;;;;;;;;;;14.70;99.90;;;;;;4998168;28;19926;-76
2022/09/04 05:11:42;;;;;;;;;;;14.80;99.90;;;;;;4997246;28;19925;-77
2022/09/04 05:14:26;;;;;;;;;;;14.70;99.90;;;;;;5029901;28;19933;-76
2022/09/04 05:17:04;;;;;;;;;;;14.80;99.90;;;;;;5013638;28;19948;-76
2022/09/04 05:19:48;;;;;;;;;;;14.80;99.90;;;;;;4997386;28;20384;-78
2022/09/04 05:22:33;;;;;;;;;;;14.80;99.90;;;;;;4997175;28;19925;-77
2022/09/04 05:25:06;;;;;;;;;;;14.80;99.90;;;;;;5013746;28;20087;-77
2022/09/04 05:27:31;;;;;;;;;;;14.90;99.90;;;;;;5014311;28;19926;-80
2022/09/04 05:30:02;;;;;;;;;;;14.90;99.90;;;;;;4997088;28;19932;-79
2022/09/04 05:32:54;;;;;;;;;;;14.90;99.90;;;;;;5012957;28;19925;-77
2022/09/04 05:35:23;;;;;;;;;;;15.00;99.90;;;;;;5006100;28;19929;-76
2022/09/04 05:37:57;;;;;;;;;;;15.00;99.90;;;;;;4997159;28;20004;-80
2022/09/04 05:40:36;;;;;;;;;;;15.10;99.90;;;;;;4996949;28;19969;-79
2022/09/04 05:43:14;;;;;;;;;;;15.10;99.90;;;;;;5030132;28;20012;-79
2022/09/04 05:45:51;;;;;;;;;;;15.20;99.90;;;;;;5014071;28;20372;-80
2022/09/04 05:48:23;;;;;;;;;;;15.20;99.90;;;;;;5029926;28;20033;-80
2022/09/04 05:51:08;;;;;;;;;;;15.30;99.90;;;;;;5029506;28;19929;-80
2022/09/04 05:53:46;;;;;;;;;;;15.30;99.90;;;;;;4996638;28;19932;-81
2022/09/04 05:56:14;;;;;;;;;;;15.30;99.90;;;;;;5013203;28;19933;-80
2022/09/04 05:58:58;;;;;;;;;;;15.30;99.90;;;;;;5013028;28;19932;-83
2022/09/04 06:01:30;;;;;;;;;;;15.40;99.90;;;;;;5012744;28;19936;-79
2022/09/04 06:04:21;;;;;;;;;;;15.30;99.90;;;;;;4997503;28;19926;-78
2022/09/04 06:06:54;;;;;;;;;;;15.40;99.90;;;;;;5046179;28;19925;-78
2022/09/04 06:09:25;;;;;;;;;;;15.40;99.90;;;;;;5030298;28;19987;-79
2022/09/04 06:12:10;;;;;;;;;;;15.50;99.90;;;;;;5012597;28;19925;-79
2022/09/04 06:14:35;;;;;;;;;;;15.50;99.90;;;;;;5030212;28;19987;-74
2022/09/04 06:17:10;;;;;;;;;;;15.50;99.90;;;;;;4996478;28;19929;-74
2022/09/04 06:19:51;;;;;;;;;;;15.60;99.90;;;;;;4996248;28;19926;-76
2022/09/04 06:22:35;;;;;;;;;;;15.70;99.90;;;;;;4996175;28;19926;-80
2022/09/04 06:25:06;;;;;;;;;;;15.70;99.90;;;;;;4996760;28;19926;-80
2022/09/04 06:27:52;;;;;;;;;;;15.80;99.90;;;;;;5046380;28;20015;-80
2022/09/04 06:30:18;;;;;;;;;;;15.90;99.90;;;;;;4996276;28;19932;-80
2022/09/04 06:32:59;;;;;;;;;;;15.90;99.90;;;;;;5012769;28;19925;-80
2022/09/04 06:35:44;;;;;;;;;;;15.90;99.90;;;;;;4996417;28;19953;-80
2022/09/04 06:38:28;;;;;;;;;;;16.00;99.90;;;;;;4997263;28;20273;-80
2022/09/04 06:41:09;;;;;;;;;;;16.00;99.90;;;;;;4996307;28;20328;-80
2022/09/04 06:43:41;;;;;;;;;;;16.10;99.90;;;;;;5014394;28;19933;-80
2022/09/04 06:46:26;;;;;;;;;;;16.10;99.90;;;;;;5016656;28;19925;-80
2022/09/04 06:49:12;;;;;;;;;;;16.20;99.90;;;;;;5016568;28;20020;-81
2022/09/04 06:52:02;;;;;;;;;;;16.30;99.90;;;;;;5050218;28;20397;-80
2022/09/04 06:54:27;;;;;;;;;;;16.40;99.90;;;;;;4999273;28;19933;-80
2022/09/04 06:56:57;;;;;;;;;;;16.50;99.90;;;;;;5000000;28;19926;-81
2022/09/04 06:59:52;;;;;;;;;;;16.50;99.90;;;;;;5016074;28;20027;-80
2022/09/04 07:02:33;;;;;;;;;;;16.60;99.90;;;;;;4998955;28;20332;-81
2022/09/04 07:05:04;;;;;;;;;;;16.70;99.90;;;;;;5032431;28;19933;-81
2022/09/04 07:07:33;;;;;;;;;;;16.80;99.90;;;;;;5032735;28;19932;-80
2022/09/04 07:10:01;;;;;;;;;;;16.80;99.60;;;;;;4999221;28;19980;-80
2022/09/04 07:12:36;;;;;;;;;;;16.80;99.90;;;;;;5032974;28;19926;-81
2022/09/04 07:15:20;;;;;;;;;;;17.00;99.90;;;;;;4999436;28;20251;-80
2022/09/04 07:17:55;;;;;;;;;;;17.00;99.90;;;;;;5033042;28;19925;-81
2022/09/04 07:20:50;;;;;;;;;;;17.10;99.60;;;;;;5015772;28;19976;-80
2022/09/04 07:23:15;;;;;;;;;;;17.10;99.40;;;;;;5010610;28;20375;-80
2022/09/04 07:26:02;;;;;;;;;;;17.20;99.70;;;;;;4999255;28;19929;-81
2022/09/04 07:28:46;;;;;;;;;;;17.30;99.80;;;;;;5031795;28;19929;-80
2022/09/04 07:31:30;;;;;;;;;;;17.40;99.80;;;;;;5015491;28;19926;-80
2022/09/04 07:33:59;;;;;;;;;;;17.50;99.90;;;;;;5049067;28;19926;-80
2022/09/04 07:36:31;;;;;;;;;;;17.60;99.70;;;;;;4999055;28;19930;-80
2022/09/04 07:39:06;;;;;;;;;;;17.70;99.30;;;;;;5015701;28;19933;-80
2022/09/04 07:41:51;;;;;;;;;;;17.80;99.60;;;;;;4999852;28;19925;-80
2022/09/04 07:44:23;;;;;;;;;;;17.90;99.50;;;;;;4998702;28;20396;-80
2022/09/04 07:47:15;;;;;;;;;;;18.00;99.20;;;;;;5048707;28;20060;-81
2022/09/04 07:49:40;;;;;;;;;;;18.10;99.20;;;;;;4998310;28;19925;-80
2022/09/04 07:52:18;;;;;;;;;;;18.20;99.00;;;;;;4998664;28;19926;-80
2022/09/04 07:55:06;;;;;;;;;;;18.30;98.80;;;;;;5015426;28;20046;-80
2022/09/04 07:57:47;;;;;;;;;;;18.40;99.40;;;;;;5031600;28;19987;-81
2022/09/04 08:00:16;;;;;;;;;;;18.60;99.10;;;;;;5015899;28;19981;-80
2022/09/04 08:02:48;;;;;;;;;;;18.70;98.80;;;;;;5014806;28;19925;-81
2022/09/04 08:05:28;;;;;;;;;;;18.90;98.60;;;;;;5014397;28;19929;-81
2022/09/04 08:08:12;;;;;;;;;;;19.00;98.30;;;;;;5014768;28;19933;-81
2022/09/04 08:10:59;;;;;;;;;;;19.10;98.10;;;;;;4998406;28;19925;-81
2022/09/04 08:13:44;;;;;;;;;;;19.20;98.40;;;;;;5047729;28;19930;-78
2022/09/04 08:16:24;;;;;;;;;;;19.40;98.60;;;;;;4999209;28;20016;-78
2022/09/04 08:19:00;;;;;;;;;;;19.60;98.10;;;;;;5015496;28;19933;-79
2022/09/04 08:21:30;;;;;;;;;;;19.70;98.10;;;;;;5014580;28;19925;-80
2022/09/04 08:24:15;;;;;;;;;;;19.90;97.90;;;;;;5014271;28;20380;-80
2022/09/04 08:26:50;;;;;;;;;;;20.00;97.30;;;;;;4998509;28;19976;-80
2022/09/04 08:29:19;;;;;;;;;;;20.20;97.60;;;;;;4998303;28;19925;-79
2022/09/04 08:31:52;;;;;;;;;;;20.30;97.30;;;;;;5030808;28;19995;-80
2022/09/04 08:34:33;;;;;;;;;;;20.40;97.00;;;;;;5048094;28;19933;-80
2022/09/04 08:37:08;;;;;;;;;;;20.50;96.80;;;;;;5014600;28;19926;-80
2022/09/04 08:39:52;;;;;;;;;;;20.60;96.40;;;;;;5014297;28;20020;-80
2022/09/04 08:42:18;;;;;;;;;;;20.60;96.40;;;;;;5047487;28;19925;-79
2022/09/04 08:44:47;;;;;;;;;;;20.70;96.50;;;;;;4997770;28;20024;-80
2022/09/04 08:47:34;;;;;;;;;;;20.80;96.40;;;;;;5014363;28;19926;-79
2022/09/04 08:50:02;;;;;;;;;;;20.90;96.10;;;;;;5010479;28;19926;-80
2022/09/04 08:52:44;;;;;;;;;;;21.00;96.00;;;;;;4997498;28;19948;-79
2022/09/04 08:55:28;;;;;;;;;;;21.10;96.30;;;;;;5030479;28;20353;-78
2022/09/04 08:58:09;;;;;;;;;;;21.20;95.80;;;;;;5013866;28;20365;-80
2022/09/04 09:00:34;;;;;;;;;;;21.30;95.50;;;;;;5013510;28;19980;-80
2022/09/04 09:03:18;;;;;;;;;;;21.30;95.70;;;;;;5014054;28;19925;-80
2022/09/04 09:05:48;;;;;;;;;;;21.50;95.80;;;;;;5012890;28;19999;-80
2022/09/04 09:08:17;;;;;;;;;;;21.60;95.60;;;;;;5046793;28;19925;-80
2022/09/04 09:10:48;;;;;;;;;;;21.70;95.40;;;;;;5013750;28;19932;-80
2022/09/04 09:13:20;;;;;;;;;;;21.80;95.10;;;;;;5013677;28;19949;-80
2022/09/04 09:16:04;;;;;;;;;;;21.90;94.80;;;;;;4997234;28;19932;-80
2022/09/04 09:18:33;;;;;;;;;;;21.90;94.90;;;;;;5014596;28;19926;-79
2022/09/04 09:21:09;;;;;;;;;;;21.90;94.90;;;;;;5046599;28;19926;-78
2022/09/04 09:23:43;;;;;;;;;;;22.00;95.10;;;;;;5012783;28;19929;-78
2022/09/04 09:26:29;;;;;;;;;;;22.10;94.80;;;;;;4997534;28;19931;-78
2022/09/04 09:29:11;;;;;;;;;;;22.20;94.60;;;;;;4996612;28;19929;-78
2022/09/04 09:31:46;;;;;;;;;;;22.30;94.80;;;;;;5013165;28;19926;-78
2022/09/04 09:34:34;;;;;;;;;;;22.50;95.30;;;;;;5013169;28;20012;-78
2022/09/04 09:37:15;;;;;;;;;;;22.60;94.70;;;;;;5013290;28;20373;-78
2022/09/04 09:39:52;;;;;;;;;;;22.70;93.70;;;;;;5045727;28;19929;-81
2022/09/04 09:42:25;;;;;;;;;;;22.80;94.00;;;;;;4995851;28;19980;-82
2022/09/04 09:45:12;;;;;;;;;;;22.80;93.20;;;;;;5030155;28;19948;-81
2022/09/04 09:47:41;;;;;;;;;;;22.90;93.50;;;;;;4996806;28;19933;-80
2022/09/04 09:50:25;;;;;;;;;;;23.10;93.20;;;;;;4996126;28;19926;-82
2022/09/04 09:53:09;;;;;;;;;;;23.20;93.70;;;;;;5012851;28;19932;-81
2022/09/04 09:55:38;;;;;;;;;;;23.40;93.50;;;;;;4997094;28;20350;-81
2022/09/04 09:58:22;;;;;;;;;;;23.60;93.20;;;;;;4995973;28;20365;-81
2022/09/04 10:01:06;;;;;;;;;;;23.70;92.90;;;;;;4996299;28;19926;-81
2022/09/04 10:03:38;;;;;;;;;;;23.80;92.60;;;;;;5013357;28;20012;-82
2022/09/04 10:06:22;;;;;;;;;;;23.80;92.30;;;;;;4995661;28;19925;-82
2022/09/04 10:08:51;;;;;;;;;;;23.90;93.10;;;;;;5012924;28;19969;-82
2022/09/04 10:11:17;;;;;;;;;;;23.90;92.00;;;;;;4996264;28;19976;-78
2022/09/04 10:14:01;;;;;;;;;;;24.00;93.20;;;;;;5045445;28;19968;-80
2022/09/04 10:16:41;;;;;;;;;;;24.10;92.10;;;;;;5012464;28;19925;-80
2022/09/04 10:19:26;;;;;;;;;;;24.20;93.00;;;;;;5033281;28;20017;-80
2022/09/04 10:21:52;;;;;;;;;;;24.20;91.60;;;;;;5017313;28;19925;-80
2022/09/04 10:24:30;;;;;;;;;;;24.30;92.50;;;;;;5049518;28;20278;-80
2022/09/04 10:27:07;;;;;;;;;;;24.30;91.60;;;;;;5016443;28;19926;-80
2022/09/04 10:29:36;;;;;;;;;;;24.40;92.00;;;;;;5016323;28;20364;-80
2022/09/04 10:32:02;;;;;;;;;;;24.50;92.20;;;;;;5000076;28;19930;-80
2022/09/04 10:34:38;;;;;;;;;;;24.60;91.60;;;;;;4999816;28;19936;-80
2022/09/04 10:37:23;;;;;;;;;;;24.70;91.40;;;;;;5016531;28;19991;-80
2022/09/04 10:43:09;;;;;;;;;;;25.00;90.00;;;;;;5048862;28;19940;-79
2022/09/04 10:45:44;;;;;;;;;;;25.10;90.30;;;;;;5015951;28;20055;-80
2022/09/04 10:48:13;;;;;;;;;;;25.30;90.00;;;;;;5000425;28;19925;-80
2022/09/04 10:51:00;;;;;;;;;;;25.40;89.70;;;;;;5048937;28;19932;-78
2022/09/04 10:53:29;;;;;;;;;;;25.60;89.80;;;;;;5032232;28;20012;-77
2022/09/04 10:56:03;;;;;;;;;;;25.60;89.50;;;;;;5032673;28;19936;-77
2022/09/04 10:58:38;;;;;;;;;;;25.60;87.90;;;;;;5031981;28;19926;-78
2022/09/04 11:01:22;;;;;;;;;;;25.60;88.10;;;;;;5032028;28;19926;-78
2022/09/04 11:04:00;;;;;;;;;;;25.70;87.70;;;;;;5015650;28;20012;-76
2022/09/04 11:06:41;;;;;;;;;;;25.70;87.70;;;;;;5015312;28;20005;-77
2022/09/04 11:09:27;;;;;;;;;;;25.80;88.90;;;;;;5033018;28;20281;-78
2022/09/04 11:12:11;;;;;;;;;;;25.90;89.40;;;;;;4999143;28;19941;-77
2022/09/04 11:14:43;;;;;;;;;;;26.00;90.30;;;;;;5015465;28;20032;-77
2022/09/04 11:17:08;;;;;;;;;;;26.10;88.20;;;;;;4998855;28;19925;-76
2022/09/04 11:19:52;;;;;;;;;;;26.20;87.50;;;;;;5015855;28;19929;-77
2022/09/04 11:22:18;;;;;;;;;;;26.30;88.20;;;;;;5015435;28;19925;-78
2022/09/04 11:25:03;;;;;;;;;;;26.50;88.70;;;;;;5031926;28;19925;-77
2022/09/04 11:27:48;;;;;;;;;;;26.70;88.00;;;;;;5048460;28;19925;-77
2022/09/04 11:30:16;;;;;;;;;;;27.10;87.50;;;;;;4998452;28;19926;-77
2022/09/04 11:33:08;;;;;;;;;;;27.40;86.30;;;;;;5015075;28;20408;-77
2022/09/04 11:35:41;;;;;;;;;;;27.50;85.20;;;;;;5049074;28;20266;-80
2022/09/04 11:38:12;;;;;;;;;;;27.70;85.00;;;;;;5048303;28;19932;-80
2022/09/04 11:41:02;;;;;;;;;;;27.90;86.00;;;;;;5015371;28;20350;-80
2022/09/04 11:43:29;;;;;;;;;;;28.00;84.40;;;;;;5031562;28;19925;-80
2022/09/04 11:46:06;;;;;;;;;;;27.90;83.90;;;;;;5048397;28;19929;-80
2022/09/04 11:48:40;;;;;;;;;;;28.00;84.30;;;;;;5032274;28;19956;-80
2022/09/04 11:51:27;;;;;;;;;;;28.00;84.10;;;;;;5031351;28;20378;-80
2022/09/04 11:53:53;;;;;;;;;;;28.00;82.30;;;;;;4998123;28;19933;-80
2022/09/04 11:56:36;;;;;;;;;;;28.10;84.20;;;;;;4998137;28;19926;-80
2022/09/04 11:59:21;;;;;;;;;;;28.10;83.70;;;;;;4998399;28;20320;-80
2022/09/04 12:01:55;;;;;;;;;;;27.90;80.80;;;;;;5014339;28;19925;-80
2022/09/04 12:04:27;;;;;;;;;;;28.10;82.50;;;;;;5015421;28;19930;-80
2022/09/04 12:06:59;;;;;;;;;;;28.00;81.40;;;;;;5014202;28;20370;-79
2022/09/04 12:09:43;;;;;;;;;;;28.20;84.70;;;;;;4997887;28;20008;-79
2022/09/04 12:12:13;;;;;;;;;;;28.40;84.50;;;;;;4998082;28;20035;-80
2022/09/04 12:14:48;;;;;;;;;;;28.60;81.50;;;;;;5030981;28;19975;-79
2022/09/04 12:17:14;;;;;;;;;;;28.50;81.80;;;;;;5031269;28;19933;-82
2022/09/04 12:19:45;;;;;;;;;;;28.70;83.60;;;;;;5030517;28;19925;-81
2022/09/04 12:22:30;;;;;;;;;;;28.80;82.40;;;;;;4997865;28;19930;-81
2022/09/04 12:25:01;;;;;;;;;;;29.00;81.90;;;;;;5014413;28;19926;-81
2022/09/04 12:27:49;;;;;;;;;;;29.10;80.40;;;;;;5031678;28;19933;-84
2022/09/04 12:30:19;;;;;;;;;;;29.20;81.90;;;;;;5015315;28;19929;-78
2022/09/04 12:33:00;;;;;;;;;;;29.30;82.40;;;;;;5014671;28;20281;-77
2022/09/04 12:35:45;;;;;;;;;;;29.40;80.60;;;;;;4997926;28;19925;-79
2022/09/04 12:38:23;;;;;;;;;;;29.60;81.50;;;;;;5014592;28;19925;-79
2022/09/04 12:41:11;;;;;;;;;;;29.60;79.70;;;;;;5046938;28;19926;-79
2022/09/04 12:44:03;;;;;;;;;;;29.60;78.50;;;;;;5046522;28;19926;-78
2022/09/04 12:46:49;;;;;;;;;;;29.90;79.60;;;;;;4997705;28;19925;-80
2022/09/04 12:49:31;;;;;;;;;;;30.10;79.60;;;;;;5047669;28;19929;-79
2022/09/04 12:52:22;;;;;;;;;;;30.10;79.40;;;;;;5014483;28;19932;-79
2022/09/04 12:55:02;;;;;;;;;;;30.10;78.00;;;;;;5013601;28;19926;-79
2022/09/04 12:57:35;;;;;;;;;;;30.20;77.20;;;;;;5030103;28;20008;-80
2022/09/04 13:00:11;;;;;;;;;;;30.50;77.90;;;;;;5046581;28;19972;-77
2022/09/04 13:02:43;;;;;;;;;;;30.60;77.10;;;;;;5030291;28;19980;-80
2022/09/04 13:05:29;;;;;;;;;;;30.30;76.30;;;;;;5013471;28;20301;-77
2022/09/04 13:08:17;;;;;;;;;;;30.40;77.50;;;;;;5014231;28;19926;-77
2022/09/04 13:11:01;;;;;;;;;;;30.70;79.10;;;;;;5046547;28;19980;-76
2022/09/04 13:13:48;;;;;;;;;;;30.90;78.00;;;;;;5013327;28;19925;-76
2022/09/04 13:16:52;;;;;;;;;;;31.00;77.30;;;;;;5013400;28;20384;-77
2022/09/04 13:19:23;;;;;;;;;;;30.70;74.10;;;;;;4995686;28;19941;-79
2022/09/04 13:22:18;;;;;;;;;;;30.70;75.40;;;;;;4996240;28;19925;-76
2022/09/04 13:24:44;;;;;;;;;;;30.90;75.60;;;;;;4994474;28;19988;-76
2022/09/04 13:27:25;;;;;;;;;;;31.10;74.60;;;;;;5013175;28;20362;-76
2022/09/04 13:30:08;;;;;;;;;;;31.10;74.90;;;;;;5046829;28;20252;-77
2022/09/04 13:32:33;;;;;;;;;;;31.20;74.30;;;;;;5013647;28;19973;-77
2022/09/04 13:35:08;;;;;;;;;;;31.20;74.50;;;;;;5012962;28;20385;-77
2022/09/04 13:37:52;;;;;;;;;;;31.30;74.60;;;;;;5029571;28;20346;-77
2022/09/04 13:40:18;;;;;;;;;;;31.40;74.60;;;;;;5012778;28;19925;-77
2022/09/04 13:42:47;;;;;;;;;;;31.40;73.20;;;;;;5028631;28;19932;-79
2022/09/04 13:45:24;;;;;;;;;;;31.70;73.70;;;;;;5012918;28;19925;-81
2022/09/04 13:47:57;;;;;;;;;;;31.90;74.10;;;;;;5012885;28;19987;-85
2022/09/04 13:50:25;;;;;;;;;;;32.40;74.80;;;;;;5029769;28;20266;-88
2022/09/04 13:52:52;;;;;;;;;;;32.60;73.10;;;;;;5012757;28;19932;-88
2022/09/04 13:55:22;;;;;;;;;;;32.70;71.90;;;;;;5029742;28;20289;-89
2022/09/04 13:57:57;;;;;;;;;;;32.90;72.20;;;;;;5030404;28;20046;-89
2022/09/04 14:00:28;;;;;;;;;;;32.90;71.10;;;;;;5046624;28;19961;-88
2022/09/04 14:02:59;;;;;;;;;;;32.90;72.20;;;;;;5012969;28;19979;-84
2022/09/04 14:05:27;;;;;;;;;;;32.80;69.80;;;;;;5028964;28;20370;-84
2022/09/04 14:08:07;;;;;;;;;;;32.60;71.40;;;;;;5029404;28;19925;-83
2022/09/04 14:10:51;;;;;;;;;;;32.70;71.00;;;;;;5028666;28;19925;-81
2022/09/04 14:13:49;;;;;;;;;;;32.70;70.80;;;;;;5013065;28;19926;-82
2022/09/04 14:16:16;;;;;;;;;;;32.50;70.80;;;;;;5008661;28;19976;-81
2022/09/04 14:18:55;;;;;;;;;;;32.10;70.60;;;;;;4996227;28;19925;-79
2022/09/04 14:21:23;;;;;;;;;;;32.40;71.50;;;;;;5029283;28;19925;-88
2022/09/04 14:24:11;;;;;;;;;;;32.50;71.80;;;;;;5028949;28;20362;-85
2022/09/04 14:26:46;;;;;;;;;;;32.70;70.60;;;;;;5012399;28;19973;-87
2022/09/04 14:29:14;;;;;;;;;;;32.40;70.30;;;;;;5012572;28;20366;-81
2022/09/04 14:31:49;;;;;;;;;;;32.70;71.70;;;;;;5028719;28;20326;-80
2022/09/04 14:34:21;;;;;;;;;;;33.00;72.70;;;;;;5028789;28;19936;-80
2022/09/04 14:37:06;;;;;;;;;;;33.20;70.40;;;;;;5045716;28;19925;-81
2022/09/04 14:39:46;;;;;;;;;;;33.50;69.10;;;;;;5045306;28;19925;-82
2022/09/04 14:42:26;;;;;;;;;;;33.60;70.00;;;;;;5012601;28;19925;-82
2022/09/04 14:45:08;;;;;;;;;;;33.60;68.50;;;;;;5012337;28;20353;-81
2022/09/04 14:47:33;;;;;;;;;;;33.60;70.30;;;;;;5045260;28;20319;-91
2022/09/04 14:50:00;;;;;;;;;;;33.60;67.80;;;;;;4996869;28;19925;-91
2022/09/04 14:52:28;;;;;;;;;;;33.90;68.60;;;;;;5012816;28;20331;-88
2022/09/04 14:54:56;;;;;;;;;;;34.10;68.10;;;;;;5013606;28;19926;-82
2022/09/04 14:57:37;;;;;;;;;;;34.30;68.30;;;;;;5030679;28;20265;-88
2022/09/04 15:00:16;;;;;;;;;;;34.20;67.10;;;;;;4996797;28;20020;-90
2022/09/04 15:03:08;;;;;;;;;;;34.60;68.00;;;;;;5028830;28;20370;-81
2022/09/04 15:05:46;;;;;;;;;;;35.00;66.20;;;;;;5013380;28;19925;-80
2022/09/04 15:08:25;;;;;;;;;;;35.20;65.50;;;;;;5032183;28;19933;-83
2022/09/04 15:10:52;;;;;;;;;;;35.50;68.00;;;;;;5032375;28;19925;-85
2022/09/04 15:13:27;;;;;;;;;;;35.30;64.30;;;;;;5015228;28;20361;-83
2022/09/04 15:16:08;;;;;;;;;;;35.30;64.50;;;;;;4998905;28;20350;-83